createdAt,value
2017-12-04T18:18:47.445Z,11.18
2017-12-04T18:21:40.668Z,11.30
2017-12-04T18:24:08.541Z,11.20
2017-12-04T18:26:36.438Z,11.82
2017-12-04T18:29:06.491Z,10.65
2017-12-04T18:31:35.801Z,10.85
2017-12-04T18:34:04.005Z,12.18
2017-12-04T18:36:31.484Z,11.20
2017-12-04T18:38:58.968Z,11.90
2017-12-04T18:41:26.392Z,11.55
2017-12-04T18:43:53.835Z,12.23
2017-12-04T18:46:21.309Z,11.38
2017-12-04T18:48:48.727Z,12.18
2017-12-04T18:51:16.152Z,12.13
2017-12-04T18:53:44.384Z,12.05
2017-12-04T18:56:11.800Z,12.18
2017-12-04T18:58:39.266Z,11.32
2017-12-04T19:01:06.991Z,11.73
2017-12-04T19:03:34.717Z,11.45
2017-12-04T19:06:02.892Z,12.32
2017-12-04T19:08:31.075Z,12.85
2017-12-04T19:10:58.609Z,13.23
2017-12-04T19:13:26.024Z,11.65
2017-12-04T19:15:53.452Z,12.27
2017-12-04T19:18:21.072Z,11.68
2017-12-04T19:20:48.471Z,11.82
2017-12-04T19:23:15.960Z,12.27
2017-12-04T19:25:44.180Z,13.52
2017-12-04T19:28:11.600Z,13.10
2017-12-04T19:30:39.025Z,12.27
2017-12-04T19:33:06.447Z,12.45
2017-12-04T19:35:34.651Z,12.52
2017-12-04T19:38:02.845Z,12.37
2017-12-04T19:40:30.269Z,13.38
2017-12-04T19:42:57.740Z,11.75
2017-12-04T19:45:25.196Z,12.40
2017-12-04T19:47:52.752Z,12.75
2017-12-04T19:50:20.185Z,13.45
2017-12-04T19:52:47.667Z,13.30
2017-12-04T19:55:15.152Z,12.85
2017-12-04T19:57:43.322Z,12.15
2017-12-04T20:00:10.784Z,12.80
2017-12-04T20:02:38.212Z,13.05
2017-12-04T20:05:05.696Z,13.62
2017-12-04T20:07:33.176Z,14.00
2017-12-04T20:10:00.592Z,12.45
2017-12-04T20:12:28.036Z,13.88
2017-12-04T20:14:55.521Z,13.02
2017-12-04T20:17:23.020Z,13.62
2017-12-04T20:19:50.484Z,14.20
2017-12-04T20:22:17.923Z,12.98
2017-12-04T20:24:45.348Z,12.43
2017-12-04T20:27:12.840Z,13.57
2017-12-04T20:29:40.467Z,14.00
2017-12-04T20:32:07.912Z,13.30
2017-12-04T20:34:35.380Z,13.20
2017-12-04T20:37:02.796Z,12.52
2017-12-04T20:39:30.232Z,13.50
2017-12-04T20:41:58.416Z,12.65
2017-12-04T20:44:25.928Z,13.07
2017-12-04T20:46:53.403Z,13.27
2017-12-04T20:49:20.889Z,13.55
2017-12-04T20:51:48.371Z,14.13
2017-12-04T20:54:15.800Z,14.57
2017-12-04T20:56:43.228Z,12.90
2017-12-04T20:59:10.720Z,14.20
2017-12-04T21:01:38.144Z,14.40
2017-12-04T21:04:05.573Z,13.77
2017-12-04T21:06:33.751Z,13.38
2017-12-04T21:09:13.928Z,14.00
2017-12-04T21:11:47.359Z,14.25
2017-12-04T21:14:26.924Z,13.10
2017-12-04T21:17:06.367Z,12.10
2017-12-04T21:19:33.904Z,13.10
2017-12-04T21:22:01.328Z,14.00
2017-12-04T21:24:28.772Z,13.55
2017-12-04T21:26:56.248Z,12.75
2017-12-04T21:29:23.725Z,14.05
2017-12-04T21:31:51.139Z,13.93
2017-12-04T21:34:18.564Z,13.93
2017-12-04T21:36:46.791Z,13.52
2017-12-04T21:39:14.991Z,12.80
2017-12-04T21:41:42.471Z,14.07
2017-12-04T21:44:09.955Z,14.07
2017-12-04T21:46:38.136Z,14.40
2017-12-04T21:49:06.356Z,14.77
2017-12-04T21:51:33.771Z,14.32
2017-12-04T21:54:01.192Z,13.77
2017-12-04T21:56:29.408Z,13.95
2017-12-04T21:58:57.597Z,13.88
2017-12-04T22:01:25.787Z,14.27
2017-12-04T22:03:54.011Z,14.05
2017-12-04T22:06:21.416Z,14.55
2017-12-04T22:08:48.860Z,13.98
2017-12-04T22:11:17.060Z,14.05
2017-12-04T22:13:45.272Z,13.05
2017-12-04T22:16:12.776Z,13.02
2017-12-04T22:18:40.198Z,13.48
2017-12-04T22:21:07.720Z,14.40
2017-12-04T22:23:35.135Z,13.85
2017-12-04T22:26:02.568Z,15.35
2017-12-04T22:28:30.779Z,14.15
2017-12-04T22:30:58.976Z,14.93
2017-12-04T22:33:26.466Z,14.85
2017-12-04T22:35:53.944Z,14.87
2017-12-04T22:38:21.359Z,15.55
2017-12-04T22:40:48.804Z,15.85
2017-12-04T22:43:16.236Z,13.38
2017-12-04T22:45:43.661Z,15.48
2017-12-04T22:48:11.852Z,14.45
2017-12-04T22:50:40.067Z,15.00
2017-12-04T22:53:07.547Z,15.45
2017-12-04T22:55:34.981Z,14.63
2017-12-04T22:58:02.411Z,15.43
2017-12-04T23:00:30.596Z,16.00
2017-12-04T23:02:58.784Z,14.80
2017-12-04T23:05:29.160Z,15.10
2017-12-04T23:07:56.656Z,14.95
2017-12-04T23:10:24.071Z,15.23
2017-12-04T23:12:51.627Z,15.23
2017-12-04T23:15:19.088Z,14.52
2017-12-04T23:17:47.296Z,15.70
2017-12-04T23:20:14.712Z,15.07
2017-12-04T23:22:42.160Z,16.50
2017-12-04T23:25:09.604Z,15.20
2017-12-04T23:27:37.115Z,16.33
2017-12-04T23:30:04.604Z,14.68
2017-12-04T23:32:32.083Z,13.65
2017-12-04T23:35:00.283Z,15.65
2017-12-04T23:37:28.477Z,15.65
2017-12-04T23:39:56.656Z,15.10
2017-12-04T23:42:24.084Z,15.13
2017-12-04T23:44:51.507Z,15.90
2017-12-04T23:47:19.025Z,16.98
2017-12-04T23:49:46.459Z,15.30
2017-12-04T23:52:13.892Z,16.75
2017-12-04T23:54:41.312Z,16.60
2017-12-04T23:57:08.848Z,16.25
2017-12-04T23:59:36.269Z,15.73
